createdAt,value
2017-01-11T00:00:31.411Z,16
2017-01-11T00:01:41.970Z,16
2017-01-11T00:02:52.806Z,12
2017-01-11T00:04:03.339Z,12
2017-01-11T00:05:13.869Z,12
2017-01-11T00:06:24.405Z,8
2017-01-11T00:07:34.941Z,16
2017-01-11T00:08:45.479Z,16
2017-01-11T00:09:56.013Z,16
2017-01-11T00:11:06.549Z,16
2017-01-11T00:12:17.078Z,16
2017-01-11T00:13:27.613Z,12
2017-01-11T00:14:38.143Z,16
2017-01-11T00:15:48.679Z,12
2017-01-11T00:16:59.209Z,16
2017-01-11T00:18:09.746Z,16
2017-01-11T00:19:20.276Z,12
2017-01-11T00:20:31.105Z,12
2017-01-11T00:21:41.640Z,12
2017-01-11T00:22:52.197Z,12
2017-01-11T00:24:02.751Z,12
2017-01-11T00:25:13.289Z,12
2017-01-11T00:26:24.119Z,12
2017-01-11T00:27:34.651Z,12
2017-01-11T00:28:59.712Z,12
2017-01-11T00:30:10.251Z,12
2017-01-11T00:31:20.985Z,12
2017-01-11T00:32:31.515Z,12
2017-01-11T00:33:42.075Z,12
2017-01-11T00:34:52.606Z,12
2017-01-11T00:36:03.138Z,12
2017-01-11T00:37:13.874Z,12
2017-01-11T00:38:24.411Z,12
2017-01-11T00:39:34.942Z,12
2017-01-11T00:40:59.998Z,12
2017-01-11T00:42:10.528Z,12
2017-01-11T00:43:21.061Z,12
2017-01-11T00:44:31.596Z,12
2017-01-11T00:45:42.124Z,12
2017-01-11T00:46:52.654Z,12
2017-01-11T00:48:03.184Z,12
2017-01-11T00:49:13.719Z,12
2017-01-11T00:50:24.253Z,12
2017-01-11T00:51:34.787Z,12
2017-01-11T00:52:45.898Z,12
2017-01-11T00:53:56.631Z,12
2017-01-11T00:56:32.219Z,12
2017-01-11T00:57:42.748Z,12
2017-01-11T00:59:07.807Z,12
2017-01-11T01:00:18.338Z,12
2017-01-11T01:01:28.872Z,12
2017-01-11T01:02:39.401Z,12
2017-01-11T01:03:49.930Z,12
2017-01-11T01:05:00.582Z,12
2017-01-11T01:06:10.993Z,12
2017-01-11T01:07:21.979Z,12
2017-01-11T01:08:32.960Z,12
2017-01-11T01:09:43.376Z,12
2017-01-11T01:11:08.338Z,12
2017-01-11T01:12:18.750Z,12
2017-01-11T01:13:29.162Z,12
2017-01-11T01:14:39.577Z,12
2017-01-11T01:15:49.993Z,12
2017-01-11T01:17:00.412Z,12
2017-01-11T01:18:10.825Z,12
2017-01-11T01:19:21.237Z,12
2017-01-11T01:20:31.676Z,12
2017-01-11T01:21:42.291Z,12
2017-01-11T01:22:52.705Z,12
2017-01-11T01:24:03.118Z,12
2017-01-11T01:25:13.535Z,12
2017-01-11T01:26:23.947Z,12
2017-01-11T01:27:34.361Z,12
2017-01-11T01:28:44.776Z,12
2017-01-11T01:29:55.191Z,12
2017-01-11T01:31:05.608Z,12
2017-01-11T01:32:16.020Z,12
2017-01-11T01:33:26.647Z,12
2017-01-11T01:34:37.056Z,4
2017-01-11T01:35:47.465Z,16
2017-01-11T01:36:57.888Z,12
2017-01-11T01:38:08.302Z,12
2017-01-11T01:39:19.120Z,12
2017-01-11T01:40:29.656Z,12
2017-01-11T01:41:40.189Z,12
2017-01-11T01:42:50.723Z,12
2017-01-11T01:44:01.253Z,12
2017-01-11T01:45:11.984Z,12
2017-01-11T01:46:22.513Z,12
2017-01-11T01:47:33.044Z,12
2017-01-11T01:48:43.574Z,12
2017-01-11T01:49:54.104Z,12
2017-01-11T01:51:04.937Z,12
2017-01-11T01:52:15.468Z,12
2017-01-11T01:53:26.000Z,12
2017-01-11T01:54:36.531Z,12
2017-01-11T01:55:47.061Z,12
2017-01-11T01:56:57.792Z,12
2017-01-11T01:58:08.322Z,12
2017-01-11T01:59:18.859Z,12
2017-01-11T02:00:29.388Z,12
2017-01-11T02:01:39.921Z,12
2017-01-11T02:02:50.653Z,12
2017-01-11T02:04:01.184Z,12
2017-01-11T02:05:11.716Z,12
2017-01-11T02:07:47.509Z,12
2017-01-11T02:08:58.038Z,12
2017-01-11T02:10:23.098Z,12
2017-01-11T02:11:33.658Z,12
2017-01-11T02:12:44.215Z,12
2017-01-11T02:13:54.799Z,12
2017-01-11T02:15:05.333Z,12
2017-01-11T02:16:15.863Z,12
2017-01-11T02:17:26.390Z,12
2017-01-11T02:18:37.120Z,12
2017-01-11T02:19:47.652Z,12
2017-01-11T02:20:58.183Z,12
2017-01-11T02:22:08.710Z,12
2017-01-11T02:23:19.240Z,12
2017-01-11T02:24:29.970Z,12
2017-01-11T02:25:40.506Z,12
2017-01-11T02:26:51.035Z,12
2017-01-11T02:28:01.593Z,12
2017-01-11T02:29:12.124Z,12
2017-01-11T02:30:23.435Z,12
2017-01-11T02:31:33.968Z,12
2017-01-11T02:32:44.504Z,12
2017-01-11T02:33:55.039Z,12
2017-01-11T02:35:05.575Z,12
2017-01-11T02:36:16.404Z,12
2017-01-11T02:37:26.934Z,12
2017-01-11T02:38:37.505Z,12
2017-01-11T02:40:02.562Z,12
2017-01-11T02:41:13.294Z,12
2017-01-11T02:42:23.822Z,12
2017-01-11T02:43:34.359Z,12
2017-01-11T02:44:44.885Z,12
2017-01-11T02:45:55.414Z,12
2017-01-11T02:47:06.144Z,16
2017-01-11T02:48:16.679Z,12
2017-01-11T02:49:27.210Z,16
2017-01-11T02:50:37.747Z,12
2017-01-11T02:51:48.279Z,12
2017-01-11T02:52:59.015Z,12
2017-01-11T02:54:09.553Z,12
2017-01-11T02:55:20.088Z,12
2017-01-11T02:56:30.624Z,12
2017-01-11T02:57:41.154Z,12
2017-01-11T02:58:51.886Z,12
2017-01-11T03:00:02.421Z,12
2017-01-11T03:01:12.956Z,12
2017-01-11T03:02:23.487Z,12
2017-01-11T03:03:34.016Z,12
2017-01-11T03:04:44.550Z,12
2017-01-11T03:05:55.078Z,12
2017-01-11T03:07:05.611Z,12
2017-01-11T03:08:30.675Z,12
2017-01-11T03:09:41.206Z,12
2017-01-11T03:10:51.739Z,12
2017-01-11T03:12:02.267Z,12
2017-01-11T03:13:12.804Z,12
2017-01-11T03:14:23.334Z,12
2017-01-11T03:15:33.872Z,12
2017-01-11T03:16:44.400Z,12
2017-01-11T03:17:54.941Z,12
2017-01-11T03:19:05.477Z,12
2017-01-11T03:20:16.004Z,12
2017-01-11T03:21:26.537Z,12
2017-01-11T03:22:37.066Z,12
2017-01-11T03:23:47.598Z,16
2017-01-11T03:24:58.134Z,12
2017-01-11T03:26:08.669Z,12
2017-01-11T03:27:19.397Z,12
2017-01-11T03:28:29.935Z,12
2017-01-11T03:29:40.479Z,12
2017-01-11T03:30:51.011Z,12
2017-01-11T03:32:01.539Z,12
2017-01-11T03:33:12.067Z,12
2017-01-11T03:34:22.599Z,12
2017-01-11T03:35:33.132Z,12
2017-01-11T03:36:43.663Z,12
2017-01-11T03:37:54.221Z,12
2017-01-11T03:39:05.051Z,12
2017-01-11T03:40:15.580Z,12
2017-01-11T03:41:26.114Z,12
2017-01-11T03:42:36.644Z,12
2017-01-11T03:43:47.177Z,12
2017-01-11T03:44:57.909Z,12
2017-01-11T03:46:08.442Z,12
2017-01-11T03:47:18.972Z,12
2017-01-11T03:48:29.690Z,12
2017-01-11T03:49:40.236Z,12
2017-01-11T03:50:51.077Z,12
2017-01-11T03:52:01.607Z,12
2017-01-11T03:53:12.136Z,12
2017-01-11T03:54:22.668Z,12
2017-01-11T03:55:33.211Z,12
2017-01-11T03:56:43.939Z,12
2017-01-11T03:57:54.472Z,12
2017-01-11T03:59:05.005Z,12
2017-01-11T04:00:15.538Z,12
2017-01-11T04:01:26.069Z,12
2017-01-11T04:02:36.904Z,12
2017-01-11T04:03:47.436Z,12
2017-01-11T04:04:57.968Z,12
2017-01-11T04:06:08.505Z,16
2017-01-11T04:07:19.031Z,12
2017-01-11T04:08:29.563Z,12
2017-01-11T04:09:40.067Z,12
2017-01-11T04:10:50.502Z,12
2017-01-11T04:12:00.942Z,12
2017-01-11T04:13:11.383Z,12
2017-01-11T04:15:47.002Z,12
2017-01-11T04:16:57.443Z,16
2017-01-11T04:18:07.879Z,12
2017-01-11T04:19:18.620Z,12
2017-01-11T04:20:29.063Z,12
2017-01-11T04:21:54.048Z,12
2017-01-11T04:23:04.485Z,12
2017-01-11T04:24:14.952Z,16
2017-01-11T04:25:25.588Z,12
2017-01-11T04:26:36.031Z,12
2017-01-11T04:27:46.468Z,12
2017-01-11T04:30:22.191Z,12
2017-01-11T04:31:32.635Z,12
2017-01-11T04:32:43.074Z,12
2017-01-11T04:33:53.514Z,12
2017-01-11T04:35:03.955Z,12
2017-01-11T04:36:14.392Z,12
2017-01-11T04:38:49.826Z,12
2017-01-11T04:40:00.267Z,12
2017-01-11T04:41:11.006Z,12
2017-01-11T04:42:21.452Z,12
2017-01-11T04:43:31.890Z,12
2017-01-11T04:44:42.336Z,12
2017-01-11T04:45:52.776Z,12
2017-01-11T04:47:03.520Z,12
2017-01-11T04:48:13.978Z,12
2017-01-11T04:49:24.413Z,12
2017-01-11T04:50:34.861Z,12
2017-01-11T04:51:45.311Z,12
2017-01-11T04:52:55.749Z,12
2017-01-11T04:54:06.184Z,12
2017-01-11T04:55:16.631Z,12
2017-01-11T04:56:27.073Z,12
2017-01-11T04:57:37.510Z,12
2017-01-11T04:58:48.149Z,12
2017-01-11T04:59:58.585Z,12
2017-01-11T05:01:09.027Z,12
2017-01-11T05:02:19.468Z,12
2017-01-11T05:03:30.481Z,12
2017-01-11T05:04:41.224Z,12
2017-01-11T05:05:51.663Z,12
2017-01-11T05:07:02.100Z,12
2017-01-11T05:08:12.540Z,12
2017-01-11T05:09:22.976Z,12
2017-01-11T05:10:33.719Z,12
2017-01-11T05:11:44.161Z,12
2017-01-11T05:12:54.595Z,12
2017-01-11T05:14:05.031Z,12
2017-01-11T05:15:15.471Z,12
2017-01-11T05:16:26.132Z,12
2017-01-11T05:17:36.572Z,12
2017-01-11T05:18:47.011Z,12
2017-01-11T05:19:57.452Z,12
2017-01-11T05:21:07.886Z,12
2017-01-11T05:22:18.322Z,12
2017-01-11T05:23:28.766Z,12
2017-01-11T05:24:39.205Z,12
2017-01-11T05:25:49.639Z,12
2017-01-11T05:27:00.080Z,12
2017-01-11T05:28:10.520Z,12
2017-01-11T05:29:20.959Z,12
2017-01-11T05:30:31.396Z,12
2017-01-11T05:31:41.839Z,12
2017-01-11T05:32:52.277Z,12
2017-01-11T05:34:03.018Z,12
2017-01-11T05:35:13.465Z,12
2017-01-11T05:36:23.899Z,12
2017-01-11T05:37:34.337Z,12
2017-01-11T05:38:44.774Z,12
2017-01-11T05:39:55.517Z,12
2017-01-11T05:41:05.956Z,12
2017-01-11T05:42:16.396Z,12
2017-01-11T05:43:26.841Z,12
2017-01-11T05:44:37.277Z,12
2017-01-11T05:45:47.720Z,12
2017-01-11T05:46:58.160Z,12
2017-01-11T05:48:08.609Z,12
2017-01-11T05:49:19.048Z,12
2017-01-11T05:50:29.483Z,12
2017-01-11T05:51:39.921Z,12
2017-01-11T05:52:50.365Z,12
2017-01-11T05:54:00.802Z,12
2017-01-11T05:55:11.240Z,12
2017-01-11T05:56:21.677Z,12
2017-01-11T05:57:32.121Z,16
2017-01-11T05:58:57.104Z,12
2017-01-11T06:00:07.594Z,12
2017-01-11T06:01:18.035Z,12
2017-01-11T06:02:28.675Z,12
2017-01-11T06:03:39.115Z,12
2017-01-11T06:04:49.549Z,12
2017-01-11T06:05:59.997Z,12
2017-01-11T06:07:10.433Z,12
2017-01-11T06:09:46.050Z,12
2017-01-11T06:10:56.499Z,12
2017-01-11T06:12:06.938Z,12
2017-01-11T06:13:17.575Z,12
2017-01-11T06:14:28.018Z,12
2017-01-11T06:15:38.459Z,12
2017-01-11T06:16:48.903Z,12
2017-01-11T06:17:59.341Z,12
2017-01-11T06:19:09.976Z,12
2017-01-11T06:20:20.413Z,12
2017-01-11T06:21:45.396Z,12
2017-01-11T06:22:55.838Z,12
2017-01-11T06:24:06.480Z,12
2017-01-11T06:25:16.990Z,12
2017-01-11T06:26:27.525Z,12
2017-01-11T06:27:38.055Z,12
2017-01-11T06:28:48.589Z,12
2017-01-11T06:29:59.317Z,12
2017-01-11T06:31:09.848Z,12
2017-01-11T06:32:20.380Z,12
2017-01-11T06:33:30.912Z,12
2017-01-11T06:34:41.440Z,12
2017-01-11T06:35:52.169Z,12
2017-01-11T06:37:02.704Z,12
2017-01-11T06:38:13.232Z,12
2017-01-11T06:39:23.758Z,12
2017-01-11T06:40:34.289Z,12
2017-01-11T06:41:44.817Z,12
2017-01-11T06:43:09.877Z,12
2017-01-11T06:44:20.419Z,12
2017-01-11T06:45:30.947Z,12
2017-01-11T06:46:41.478Z,12
2017-01-11T06:47:52.012Z,12
2017-01-11T06:49:02.542Z,12
2017-01-11T06:50:13.071Z,12
2017-01-11T06:51:23.604Z,12
2017-01-11T06:53:59.013Z,12
2017-01-11T06:55:09.428Z,12
2017-01-11T06:56:19.843Z,12
2017-01-11T06:57:30.457Z,12
2017-01-11T06:58:40.873Z,12
2017-01-11T06:59:51.289Z,12
2017-01-11T07:01:01.698Z,12
2017-01-11T07:02:12.110Z,12
2017-01-11T07:03:22.722Z,12
2017-01-11T07:04:33.134Z,12
2017-01-11T07:05:43.548Z,12
2017-01-11T07:06:53.956Z,8
2017-01-11T07:08:04.369Z,12
2017-01-11T07:09:14.783Z,12
2017-01-11T07:10:25.125Z,12
2017-01-11T07:11:35.441Z,12
2017-01-11T07:12:45.761Z,12
2017-01-11T07:13:56.080Z,12
2017-01-11T07:15:06.697Z,12
2017-01-11T07:16:17.018Z,8
2017-01-11T07:17:27.341Z,12
2017-01-11T07:18:37.659Z,12
2017-01-11T07:19:47.990Z,12
2017-01-11T07:20:58.311Z,12
2017-01-11T07:22:08.658Z,12
2017-01-11T07:23:18.974Z,12
2017-01-11T07:24:29.291Z,12
2017-01-11T07:25:39.611Z,12
2017-01-11T07:26:49.930Z,12
2017-01-11T07:28:00.250Z,12
2017-01-11T07:29:10.567Z,12
2017-01-11T07:30:20.893Z,12
2017-01-11T07:31:31.213Z,12
2017-01-11T07:32:41.532Z,12
2017-01-11T07:33:51.852Z,12
2017-01-11T07:35:02.174Z,12
2017-01-11T07:36:12.493Z,12
2017-01-11T07:37:22.812Z,12
2017-01-11T07:38:33.152Z,12
2017-01-11T07:39:43.470Z,12
2017-01-11T07:40:53.787Z,4
2017-01-11T07:42:04.114Z,12
2017-01-11T07:43:14.440Z,12
2017-01-11T07:44:25.060Z,12
2017-01-11T07:45:35.376Z,12
2017-01-11T07:46:45.694Z,12
2017-01-11T07:47:56.015Z,12
2017-01-11T07:49:06.337Z,12
2017-01-11T07:50:16.862Z,12
2017-01-11T07:51:27.182Z,12
2017-01-11T07:52:37.503Z,12
2017-01-11T07:53:47.822Z,12
2017-01-11T07:54:58.149Z,12
2017-01-11T07:56:08.676Z,12
2017-01-11T07:57:18.997Z,12
2017-01-11T07:58:29.318Z,12
2017-01-11T07:59:54.205Z,12
2017-01-11T08:01:04.522Z,12
2017-01-11T08:02:29.412Z,12
2017-01-11T08:03:39.728Z,12
2017-01-11T08:04:50.045Z,12
2017-01-11T08:06:00.364Z,12
2017-01-11T08:07:10.986Z,12
2017-01-11T08:08:21.305Z,12
2017-01-11T08:09:31.623Z,8
2017-01-11T08:10:41.940Z,12
2017-01-11T08:11:52.591Z,16
2017-01-11T08:13:02.910Z,12
2017-01-11T08:14:13.235Z,12
2017-01-11T08:15:23.565Z,16
2017-01-11T08:16:33.883Z,16
2017-01-11T08:17:44.403Z,16
2017-01-11T08:18:54.726Z,12
2017-01-11T08:20:19.611Z,16
2017-01-11T08:21:29.931Z,16
2017-01-11T08:22:40.551Z,16
2017-01-11T08:23:50.870Z,16
2017-01-11T08:25:01.188Z,20
2017-01-11T08:26:11.514Z,20
2017-01-11T08:27:21.831Z,20
2017-01-11T08:28:32.348Z,24
2017-01-11T08:29:42.666Z,12
2017-01-11T08:30:52.983Z,12
2017-01-11T08:32:03.303Z,16
2017-01-11T08:33:13.621Z,20
2017-01-11T08:34:24.238Z,24
2017-01-11T08:35:34.562Z,32
2017-01-11T08:36:44.903Z,36
2017-01-11T08:37:55.222Z,40
2017-01-11T08:39:05.543Z,48
2017-01-11T08:40:15.887Z,56
2017-01-11T08:41:26.211Z,64
2017-01-11T08:42:36.540Z,68
2017-01-11T08:43:46.860Z,72
2017-01-11T08:44:57.183Z,72
2017-01-11T08:46:07.511Z,68
2017-01-11T08:47:17.828Z,72
2017-01-11T08:48:28.151Z,72
2017-01-11T08:49:38.476Z,76
2017-01-11T08:50:48.799Z,80
2017-01-11T08:51:59.420Z,84
2017-01-11T08:53:09.736Z,80
2017-01-11T08:54:20.055Z,84
2017-01-11T08:55:30.368Z,84
2017-01-11T08:56:55.458Z,88
2017-01-11T08:58:05.779Z,92
2017-01-11T08:59:16.099Z,92
2017-01-11T09:00:26.421Z,100
2017-01-11T09:01:36.740Z,104
2017-01-11T09:02:47.060Z,108
2017-01-11T09:03:57.377Z,112
2017-01-11T09:05:07.696Z,116
2017-01-11T09:06:18.018Z,124
2017-01-11T09:07:28.344Z,128
2017-01-11T09:08:38.962Z,128
2017-01-11T09:09:49.324Z,136
2017-01-11T09:10:59.647Z,140
2017-01-11T09:12:10.056Z,148
2017-01-11T09:13:20.503Z,156
2017-01-11T09:14:30.954Z,156
2017-01-11T09:15:41.397Z,160
2017-01-11T09:16:51.842Z,164
2017-01-11T09:18:02.276Z,168
2017-01-11T09:19:12.715Z,164
2017-01-11T09:20:23.354Z,168
2017-01-11T09:21:33.791Z,160
2017-01-11T09:22:58.773Z,156
2017-01-11T09:24:09.240Z,156
2017-01-11T09:25:19.673Z,156
2017-01-11T09:26:30.129Z,156
2017-01-11T09:27:40.567Z,156
2017-01-11T09:28:51.003Z,156
2017-01-11T09:30:01.441Z,156
2017-01-11T09:31:12.185Z,156
2017-01-11T09:32:22.625Z,156
2017-01-11T09:33:33.066Z,156
2017-01-11T09:34:43.508Z,160
2017-01-11T09:35:53.950Z,164
2017-01-11T09:37:04.591Z,168
2017-01-11T09:38:15.033Z,172
2017-01-11T09:39:25.471Z,180
2017-01-11T09:40:35.913Z,188
2017-01-11T09:41:46.348Z,196
2017-01-11T09:42:56.984Z,204
2017-01-11T09:45:32.407Z,224
2017-01-11T09:46:42.868Z,232
2017-01-11T09:47:53.214Z,244
2017-01-11T09:49:03.535Z,256
2017-01-11T09:50:13.855Z,264
2017-01-11T09:51:24.175Z,280
2017-01-11T09:52:34.492Z,288
2017-01-11T09:53:45.108Z,300
2017-01-11T09:54:55.435Z,308
2017-01-11T09:56:05.759Z,316
2017-01-11T09:57:16.637Z,332
2017-01-11T09:58:26.962Z,352
2017-01-11T09:59:37.281Z,372
2017-01-11T10:00:47.600Z,388
2017-01-11T10:01:57.922Z,412
2017-01-11T10:03:08.243Z,424
2017-01-11T10:04:18.590Z,436
2017-01-11T10:05:29.117Z,456
2017-01-11T10:06:39.437Z,480
2017-01-11T10:08:04.327Z,516
2017-01-11T10:09:14.651Z,540
2017-01-11T10:10:24.967Z,568
2017-01-11T10:11:49.861Z,600
2017-01-11T10:13:00.176Z,632
2017-01-11T10:14:10.499Z,652
2017-01-11T10:15:20.814Z,676
2017-01-11T10:16:31.132Z,716
2017-01-11T10:17:41.449Z,740
2017-01-11T10:18:51.769Z,748
2017-01-11T10:20:02.088Z,720
2017-01-11T10:21:12.407Z,716
2017-01-11T10:22:23.024Z,728
2017-01-11T10:23:33.341Z,732
2017-01-11T10:24:43.676Z,732
2017-01-11T10:25:53.996Z,728
2017-01-11T10:27:04.317Z,708
2017-01-11T10:28:14.839Z,696
2017-01-11T10:29:25.165Z,700
2017-01-11T10:30:35.483Z,704
2017-01-11T10:31:45.805Z,708
2017-01-11T10:32:56.124Z,716
2017-01-11T10:34:06.442Z,732
2017-01-11T10:35:16.765Z,740
2017-01-11T10:36:27.087Z,748
2017-01-11T10:37:37.405Z,752
2017-01-11T10:38:47.735Z,760
2017-01-11T10:39:58.056Z,764
2017-01-11T10:41:08.381Z,760
2017-01-11T10:42:18.703Z,768
2017-01-11T10:43:29.024Z,752
2017-01-11T10:44:39.345Z,752
2017-01-11T10:45:49.865Z,748
2017-01-11T10:47:00.184Z,752
2017-01-11T10:49:35.398Z,748
2017-01-11T10:50:45.735Z,732
2017-01-11T10:51:56.061Z,736
2017-01-11T10:53:06.383Z,764
2017-01-11T10:54:16.706Z,796
2017-01-11T10:55:27.027Z,820
2017-01-11T10:56:37.552Z,820
2017-01-11T10:57:47.870Z,836
2017-01-11T10:58:58.190Z,876
2017-01-11T11:00:08.515Z,904
2017-01-11T11:01:33.607Z,888
2017-01-11T11:02:43.925Z,892
2017-01-11T11:03:54.248Z,848
2017-01-11T11:05:04.594Z,904
2017-01-11T11:06:14.915Z,936
2017-01-11T11:07:25.433Z,936
2017-01-11T11:08:35.752Z,964
2017-01-11T11:10:00.644Z,1004
2017-01-11T11:11:25.537Z,1056
2017-01-11T11:12:36.360Z,1096
2017-01-11T11:13:46.683Z,1092
2017-01-11T11:14:58.201Z,1060
2017-01-11T11:16:09.486Z,1072
2017-01-11T11:17:19.806Z,1032
2017-01-11T11:18:30.132Z,1060
2017-01-11T11:19:40.459Z,1064
2017-01-11T11:20:50.777Z,1088
2017-01-11T11:22:01.103Z,1108
2017-01-11T11:23:11.423Z,1096
2017-01-11T11:24:21.946Z,1104
2017-01-11T11:25:32.270Z,1084
2017-01-11T11:26:42.591Z,1084
2017-01-11T11:27:52.914Z,1096
2017-01-11T11:29:03.237Z,1140
2017-01-11T11:30:13.760Z,1128
2017-01-11T11:31:24.095Z,1172
2017-01-11T11:32:34.419Z,1236
2017-01-11T11:33:44.737Z,1220
2017-01-11T11:34:55.057Z,1064
2017-01-11T11:36:05.682Z,972
2017-01-11T11:37:16.011Z,1012
2017-01-11T11:38:26.332Z,1056
2017-01-11T11:39:36.712Z,1108
2017-01-11T11:40:47.129Z,1068
2017-01-11T11:41:57.843Z,944
2017-01-11T11:43:08.259Z,820
2017-01-11T11:44:18.701Z,768
2017-01-11T11:45:29.111Z,708
2017-01-11T11:46:39.528Z,756
2017-01-11T11:47:49.939Z,892
2017-01-11T11:49:00.357Z,992
2017-01-11T11:50:10.766Z,1068
2017-01-11T11:51:21.176Z,1104
2017-01-11T11:52:46.434Z,1152
2017-01-11T11:53:56.848Z,1236
2017-01-11T11:55:07.260Z,1304
2017-01-11T11:56:18.238Z,1320
2017-01-11T11:57:28.656Z,1348
2017-01-11T11:58:39.067Z,1380
2017-01-11T11:59:49.480Z,1388
2017-01-11T12:00:59.884Z,1400
2017-01-11T12:02:24.846Z,1396
2017-01-11T12:03:35.452Z,1376
2017-01-11T12:04:45.862Z,1356
2017-01-11T12:05:56.274Z,1360
2017-01-11T12:07:06.774Z,1356
2017-01-11T12:08:31.830Z,1356
2017-01-11T12:09:42.362Z,1508
2017-01-11T12:10:52.892Z,1476
2017-01-11T12:12:03.426Z,1604
2017-01-11T12:16:04.490Z,1548
2017-01-11T12:17:15.277Z,1580
2017-01-11T12:18:25.809Z,1572
2017-01-11T12:19:36.918Z,1608
2017-01-11T12:20:47.452Z,2048
2017-01-11T12:21:57.984Z,2264
2017-01-11T12:23:09.099Z,2152
2017-01-11T12:24:20.149Z,1888
2017-01-11T12:25:30.585Z,1456
2017-01-11T12:26:41.022Z,1392
2017-01-11T12:28:06.006Z,1368
2017-01-11T12:29:16.470Z,1372
2017-01-11T12:30:27.106Z,1256
2017-01-11T12:31:37.549Z,1280
2017-01-11T12:34:12.985Z,1236
2017-01-11T12:35:23.425Z,1264
2017-01-11T12:36:34.174Z,1320
2017-01-11T12:37:44.611Z,1460
2017-01-11T12:38:55.051Z,1436
2017-01-11T12:40:05.500Z,1464
2017-01-11T12:41:45.230Z,1520
2017-01-11T12:42:55.669Z,1460
2017-01-11T12:44:06.105Z,1420
2017-01-11T12:45:16.547Z,1528
2017-01-11T12:46:27.184Z,1640
2017-01-11T12:47:37.630Z,1824
2017-01-11T12:48:48.650Z,2132
2017-01-11T12:49:59.091Z,1992
2017-01-11T12:51:09.546Z,2376
2017-01-11T12:53:44.978Z,1408
2017-01-11T12:54:55.434Z,1608
2017-01-11T12:56:05.910Z,1492
2017-01-11T12:57:31.202Z,1212
2017-01-11T12:58:41.643Z,1116
2017-01-11T12:59:52.086Z,1136
2017-01-11T13:02:27.716Z,1016
2017-01-11T13:03:38.160Z,992
2017-01-11T13:04:48.602Z,1028
2017-01-11T13:05:59.042Z,1116
2017-01-11T13:07:09.484Z,1224
2017-01-11T13:08:20.124Z,1344
2017-01-11T13:09:30.648Z,1304
2017-01-11T13:10:41.185Z,1212
2017-01-11T13:11:51.719Z,1196
2017-01-11T13:13:02.292Z,1140
2017-01-11T13:14:12.828Z,1056
2017-01-11T13:15:23.371Z,1004
2017-01-11T13:16:33.905Z,980
2017-01-11T13:17:44.442Z,976
2017-01-11T13:18:54.984Z,964
2017-01-11T13:20:05.522Z,904
2017-01-11T13:21:16.058Z,880
2017-01-11T13:22:26.593Z,864
2017-01-11T13:23:37.146Z,864
2017-01-11T13:24:48.259Z,836
2017-01-11T13:25:58.991Z,828
2017-01-11T13:27:09.532Z,836
2017-01-11T13:28:20.063Z,844
2017-01-11T13:29:30.598Z,844
2017-01-11T13:30:41.142Z,836
2017-01-11T13:31:51.684Z,800
2017-01-11T13:33:02.215Z,816
2017-01-11T13:34:12.761Z,836
2017-01-11T13:35:23.296Z,904
2017-01-11T13:36:48.680Z,1016
2017-01-11T13:37:59.217Z,1156
2017-01-11T13:39:09.753Z,1288
2017-01-11T13:40:20.286Z,1344
2017-01-11T13:41:30.821Z,1348
2017-01-11T13:42:41.353Z,1312
2017-01-11T13:43:51.896Z,1316
2017-01-11T13:46:27.508Z,1360
2017-01-11T13:47:38.239Z,1372
2017-01-11T13:48:48.788Z,1296
2017-01-11T13:50:13.855Z,1284
2017-01-11T13:51:24.314Z,1320
2017-01-11T13:52:34.723Z,1476
2017-01-11T13:53:45.135Z,1892
2017-01-11T13:54:55.480Z,1772
2017-01-11T13:56:05.804Z,1956
2017-01-11T13:57:30.705Z,2120
2017-01-11T13:58:41.027Z,2664
2017-01-11T13:59:51.349Z,2020
2017-01-11T14:01:01.678Z,1892
2017-01-11T14:02:12.005Z,1728
2017-01-11T14:03:22.327Z,1672
2017-01-11T14:04:32.646Z,1756
2017-01-11T14:05:42.978Z,2256
2017-01-11T14:06:53.309Z,2280
2017-01-11T14:08:03.629Z,2852
2017-01-11T14:09:13.955Z,2172
2017-01-11T14:10:24.499Z,1932
2017-01-11T14:11:49.949Z,1920
2017-01-11T14:13:15.402Z,2344
2017-01-11T14:14:25.725Z,2192
2017-01-11T14:15:50.618Z,2644
2017-01-11T14:17:01.531Z,2232
2017-01-11T14:18:11.889Z,1700
2017-01-11T14:19:22.214Z,1664
2017-01-11T14:20:47.678Z,1828
2017-01-11T14:21:58.012Z,2300
2017-01-11T14:23:08.906Z,1684
2017-01-11T14:24:19.232Z,1728
2017-01-11T14:25:29.557Z,2384
2017-01-11T14:26:39.883Z,2576
2017-01-11T14:27:50.208Z,2852
2017-01-11T14:29:00.528Z,3024
2017-01-11T14:30:10.860Z,2976
2017-01-11T14:31:21.186Z,2596
2017-01-11T14:32:31.516Z,2524
2017-01-11T14:33:41.849Z,2776
2017-01-11T14:34:52.199Z,3296
2017-01-11T14:36:02.530Z,3212
2017-01-11T14:37:12.860Z,2388
2017-01-11T14:38:23.387Z,2312
2017-01-11T14:39:48.338Z,2920
2017-01-11T14:40:58.756Z,2480
2017-01-11T14:42:09.172Z,2704
2017-01-11T14:43:19.587Z,2356
2017-01-11T14:44:44.558Z,2816
2017-01-11T14:45:54.974Z,2356
2017-01-11T14:47:05.392Z,2156
2017-01-11T14:48:15.813Z,1932
2017-01-11T14:49:26.232Z,1836
2017-01-11T14:50:36.650Z,1808
2017-01-11T14:51:47.062Z,1724
2017-01-11T14:52:57.476Z,1800
2017-01-11T14:54:07.890Z,1836
2017-01-11T14:55:18.303Z,1912
2017-01-11T14:56:28.714Z,2092
2017-01-11T14:57:39.125Z,2116
2017-01-11T14:58:50.639Z,2252
2017-01-11T15:00:01.057Z,2692
2017-01-11T15:01:11.569Z,3344
2017-01-11T15:02:22.142Z,3608
2017-01-11T15:03:32.690Z,2716
2017-01-11T15:04:43.229Z,2728
2017-01-11T15:05:54.068Z,2064
2017-01-11T15:07:04.615Z,1764
2017-01-11T15:08:15.151Z,1600
2017-01-11T15:09:25.689Z,1608
2017-01-11T15:10:36.226Z,1756
2017-01-11T15:11:46.965Z,1876
2017-01-11T15:12:57.501Z,1852
2017-01-11T15:14:08.046Z,1772
2017-01-11T15:15:18.583Z,1892
2017-01-11T15:16:29.120Z,2008
2017-01-11T15:17:39.656Z,2240
2017-01-11T15:18:50.197Z,2424
2017-01-11T15:20:00.738Z,2808
2017-01-11T15:21:11.326Z,2500
2017-01-11T15:22:21.865Z,2852
2017-01-11T15:23:32.705Z,2792
2017-01-11T15:24:43.173Z,2288
2017-01-11T15:25:53.624Z,2052
2017-01-11T15:27:04.072Z,1980
2017-01-11T15:28:29.155Z,1764
2017-01-11T15:29:39.663Z,1732
2017-01-11T15:30:50.109Z,1680
2017-01-11T15:32:00.556Z,1656
2017-01-11T15:33:10.996Z,1592
2017-01-11T15:34:21.652Z,1568
2017-01-11T15:35:32.091Z,1588
2017-01-11T15:36:42.533Z,1608
2017-01-11T15:37:52.998Z,1640
2017-01-11T15:39:03.440Z,1544
2017-01-11T15:40:13.882Z,1464
2017-01-11T15:41:24.345Z,1388
2017-01-11T15:42:34.785Z,1308
2017-01-11T15:43:45.226Z,1304
2017-01-11T15:44:55.688Z,1212
2017-01-11T15:46:06.340Z,1156
2017-01-11T15:48:41.771Z,1124
2017-01-11T15:50:06.766Z,1140
2017-01-11T15:51:17.209Z,1152
2017-01-11T15:52:27.652Z,1144
2017-01-11T15:53:38.104Z,1152
2017-01-11T15:54:48.543Z,1156
2017-01-11T15:55:58.983Z,1168
2017-01-11T15:57:09.429Z,1172
2017-01-11T15:58:19.870Z,1164
2017-01-11T15:59:30.310Z,1176
2017-01-11T16:00:40.751Z,1176
2017-01-11T16:01:51.197Z,1164
2017-01-11T16:03:16.184Z,1164
2017-01-11T16:04:26.641Z,1180
2017-01-11T16:05:37.082Z,1176
2017-01-11T16:06:47.523Z,1160
2017-01-11T16:07:57.968Z,1164
2017-01-11T16:09:08.663Z,1336
2017-01-11T16:10:19.208Z,1528
2017-01-11T16:11:29.765Z,1816
2017-01-11T16:12:54.824Z,1484
2017-01-11T16:14:05.356Z,1160
2017-01-11T16:15:15.894Z,984
2017-01-11T16:16:40.953Z,916
2017-01-11T16:17:52.076Z,884
2017-01-11T16:19:02.617Z,852
2017-01-11T16:20:13.149Z,832
2017-01-11T16:21:24.263Z,792
2017-01-11T16:22:34.801Z,780
2017-01-11T16:23:45.331Z,768
2017-01-11T16:24:56.446Z,744
2017-01-11T16:26:06.978Z,728
2017-01-11T16:27:17.517Z,720
2017-01-11T16:28:28.046Z,720
2017-01-11T16:29:38.592Z,696
2017-01-11T16:30:49.325Z,680
2017-01-11T16:32:00.223Z,668
2017-01-11T16:33:10.777Z,652
2017-01-11T16:34:21.340Z,640
2017-01-11T16:35:31.869Z,628
2017-01-11T16:36:42.410Z,612
2017-01-11T16:37:52.946Z,604
2017-01-11T16:39:03.476Z,592
2017-01-11T16:40:43.064Z,580
2017-01-11T16:41:53.611Z,576
2017-01-11T16:43:04.151Z,572
2017-01-11T16:44:14.681Z,564
2017-01-11T16:45:25.221Z,568
2017-01-11T16:46:35.754Z,548
2017-01-11T16:47:46.284Z,540
2017-01-11T16:48:56.818Z,536
2017-01-11T16:50:21.878Z,528
2017-01-11T16:51:46.940Z,532
2017-01-11T16:52:57.773Z,524
2017-01-11T16:54:08.270Z,512